This is the latest recevied weather packets stored in our database for station/object SQ8AQL-16. If no packets are shown the sender has not sent any weather packets the latest 10 day(s).
| Time | Temp. | Humidity | Pressure | Rain* | Wind** | Luminosity | Snow |
|---|---|---|---|---|---|---|---|
| 1777917827 | 24.44° C | 27% | 1014.1 hPa | - | - | 6 W/m² | - |
| 1777916927 | 24.44° C | 27% | 1014 hPa | - | - | 6 W/m² | - |
| 1777916026 | 24.44° C | 27% | 1013.9 hPa | - | - | 6 W/m² | - |
| 1777915125 | 32.78° C | 12% | 1014 hPa | - | - | 514 W/m² | - |
| 1777914224 | 32.78° C | 12% | 1013.9 hPa | - | - | 514 W/m² | - |
| 1777913323 | 32.78° C | 12% | 1013.9 hPa | - | - | 514 W/m² | - |
| 1777912422 | 32.78° C | 12% | 1013.9 hPa | - | - | 514 W/m² | - |
| 1777911521 | 32.78° C | 12% | 1014 hPa | - | - | 514 W/m² | - |
| 1777909718 | 32.78° C | 12% | 1014.1 hPa | - | - | 514 W/m² | - |
| 1777908818 | 32.78° C | 12% | 1014.2 hPa | - | - | 514 W/m² | - |
| 1777907917 | 32.78° C | 12% | 1014.4 hPa | - | - | 514 W/m² | - |
| 1777907016 | 32.78° C | 12% | 1014.5 hPa | - | - | 514 W/m² | - |
| 1777906115 | 32.78° C | 12% | 1014.6 hPa | - | - | 514 W/m² | - |
| 1777905214 | 32.78° C | 12% | 1014.9 hPa | - | - | 514 W/m² | - |
| 1777904313 | 32.78° C | 12% | 1014.9 hPa | - | - | 514 W/m² | - |
| 1777903412 | 33.33° C | 9% | 1015.1 hPa | - | - | 643 W/m² | - |
| 1777902511 | 33.33° C | 9% | 1015.1 hPa | - | - | 643 W/m² | - |
| 1777901610 | 33.33° C | 9% | 1015.3 hPa | - | - | 643 W/m² | - |
| 1777900709 | 33.33° C | 9% | 1015.4 hPa | - | - | 643 W/m² | - |
| 1777899808 | 33.33° C | 11% | 1015.5 hPa | - | - | 709 W/m² | - |
| 1777898907 | 33.33° C | 11% | 1015.8 hPa | - | - | 709 W/m² | - |
| 1777898006 | 33.89° C | 11% | 1015.8 hPa | - | - | 743 W/m² | - |
| 1777897105 | 33.33° C | 11% | 1015.9 hPa | - | - | 819 W/m² | - |
| 1777896204 | 33.33° C | 11% | 1016.2 hPa | - | - | 819 W/m² | - |
| 1777894402 | 32.22° C | 12% | 1016.6 hPa | - | - | 886 W/m² | - |
* Rain since midnight (hover to see other rain measurements)
** Current wind speed in m/s (hover to see current wind gust speed)